sensor_id;sensor_type;location;lat;lon;timestamp;P1;durP1;ratioP1;P2;durP2;ratioP2
17927;SDS011;9089;58.396;15.544;2022-10-31T00:00:16;3.90;;;2.08;;
17927;SDS011;9089;58.396;15.544;2022-10-31T00:02:42;2.70;;;1.80;;
17927;SDS011;9089;58.396;15.544;2022-10-31T00:05:07;3.88;;;2.05;;
17927;SDS011;9089;58.396;15.544;2022-10-31T00:07:33;3.08;;;1.55;;
17927;SDS011;9089;58.396;15.544;2022-10-31T00:10:00;3.72;;;2.00;;
17927;SDS011;9089;58.396;15.544;2022-10-31T00:12:25;4.85;;;2.25;;
17927;SDS011;9089;58.396;15.544;2022-10-31T00:14:51;4.78;;;2.60;;
17927;SDS011;9089;58.396;15.544;2022-10-31T00:17:16;2.20;;;1.95;;
17927;SDS011;9089;58.396;15.544;2022-10-31T00:19:41;5.80;;;2.10;;
17927;SDS011;9089;58.396;15.544;2022-10-31T00:22:07;6.43;;;2.45;;
17927;SDS011;9089;58.396;15.544;2022-10-31T00:24:32;5.32;;;2.00;;
17927;SDS011;9089;58.396;15.544;2022-10-31T00:26:59;9.27;;;2.55;;
17927;SDS011;9089;58.396;15.544;2022-10-31T00:29:25;4.68;;;2.30;;
17927;SDS011;9089;58.396;15.544;2022-10-31T00:31:51;7.68;;;2.50;;
17927;SDS011;9089;58.396;15.544;2022-10-31T01:24:32;6.78;;;2.55;;
17927;SDS011;9089;58.396;15.544;2022-10-31T01:27:00;7.45;;;2.83;;
17927;SDS011;9089;58.396;15.544;2022-10-31T01:29:26;6.63;;;2.72;;
17927;SDS011;9089;58.396;15.544;2022-10-31T01:31:51;6.10;;;2.90;;
17927;SDS011;9089;58.396;15.544;2022-10-31T01:34:17;5.57;;;2.75;;
17927;SDS011;9089;58.396;15.544;2022-10-31T01:36:43;6.07;;;2.90;;
17927;SDS011;9089;58.396;15.544;2022-10-31T01:39:10;7.85;;;2.40;;
17927;SDS011;9089;58.396;15.544;2022-10-31T01:41:38;7.00;;;2.88;;
17927;SDS011;9089;58.396;15.544;2022-10-31T01:46:44;7.95;;;2.38;;
17927;SDS011;9089;58.396;15.544;2022-10-31T01:49:13;5.35;;;2.58;;
17927;SDS011;9089;58.396;15.544;2022-10-31T01:51:40;5.53;;;2.70;;
17927;SDS011;9089;58.396;15.544;2022-10-31T01:54:08;3.17;;;2.42;;
17927;SDS011;9089;58.396;15.544;2022-10-31T01:56:36;5.70;;;2.67;;
17927;SDS011;9089;58.396;15.544;2022-10-31T01:59:04;6.68;;;2.55;;
17927;SDS011;9089;58.396;15.544;2022-10-31T02:01:32;9.85;;;2.95;;
17927;SDS011;9089;58.396;15.544;2022-10-31T02:03:58;9.27;;;3.42;;
17927;SDS011;9089;58.396;15.544;2022-10-31T02:06:26;8.25;;;2.85;;
17927;SDS011;9089;58.396;15.544;2022-10-31T02:08:55;2.92;;;2.35;;
17927;SDS011;9089;58.396;15.544;2022-10-31T02:11:22;8.27;;;3.20;;
17927;SDS011;9089;58.396;15.544;2022-10-31T02:13:47;12.15;;;3.08;;
17927;SDS011;9089;58.396;15.544;2022-10-31T02:16:14;4.05;;;2.92;;
17927;SDS011;9089;58.396;15.544;2022-10-31T02:18:40;10.43;;;3.25;;
17927;SDS011;9089;58.396;15.544;2022-10-31T02:21:07;5.72;;;2.83;;
17927;SDS011;9089;58.396;15.544;2022-10-31T02:23:44;6.60;;;3.33;;
17927;SDS011;9089;58.396;15.544;2022-10-31T02:26:22;6.93;;;3.33;;
17927;SDS011;9089;58.396;15.544;2022-10-31T02:28:57;7.60;;;3.05;;
17927;SDS011;9089;58.396;15.544;2022-10-31T02:31:30;4.53;;;2.47;;
17927;SDS011;9089;58.396;15.544;2022-10-31T02:33:59;6.90;;;3.45;;
17927;SDS011;9089;58.396;15.544;2022-10-31T02:36:27;5.60;;;2.80;;
17927;SDS011;9089;58.396;15.544;2022-10-31T02:38:56;8.10;;;3.03;;
17927;SDS011;9089;58.396;15.544;2022-10-31T02:41:39;6.18;;;2.95;;
17927;SDS011;9089;58.396;15.544;2022-10-31T02:44:11;7.22;;;3.33;;
17927;SDS011;9089;58.396;15.544;2022-10-31T02:46:43;5.78;;;2.85;;
17927;SDS011;9089;58.396;15.544;2022-10-31T02:49:14;8.15;;;3.25;;
17927;SDS011;9089;58.396;15.544;2022-10-31T02:51:43;9.93;;;3.92;;
17927;SDS011;9089;58.396;15.544;2022-10-31T02:54:16;6.35;;;4.07;;
17927;SDS011;9089;58.396;15.544;2022-10-31T02:56:42;11.27;;;4.63;;
17927;SDS011;9089;58.396;15.544;2022-10-31T02:59:08;5.80;;;3.70;;
17927;SDS011;9089;58.396;15.544;2022-10-31T03:07:08;10.52;;;5.03;;
17927;SDS011;9089;58.396;15.544;2022-10-31T03:09:39;12.65;;;5.32;;
17927;SDS011;9089;58.396;15.544;2022-10-31T03:12:07;11.18;;;6.07;;
17927;SDS011;9089;58.396;15.544;2022-10-31T03:14:36;14.57;;;6.43;;
17927;SDS011;9089;58.396;15.544;2022-10-31T03:17:05;11.70;;;6.80;;
17927;SDS011;9089;58.396;15.544;2022-10-31T03:19:33;19.80;;;7.43;;
17927;SDS011;9089;58.396;15.544;2022-10-31T03:22:00;17.42;;;7.10;;
17927;SDS011;9089;58.396;15.544;2022-10-31T03:24:30;15.75;;;7.47;;
17927;SDS011;9089;58.396;15.544;2022-10-31T03:26:58;18.40;;;6.97;;
17927;SDS011;9089;58.396;15.544;2022-10-31T03:29:25;12.60;;;7.15;;
17927;SDS011;9089;58.396;15.544;2022-10-31T03:31:54;14.50;;;6.43;;
17927;SDS011;9089;58.396;15.544;2022-10-31T03:34:22;15.88;;;7.05;;
17927;SDS011;9089;58.396;15.544;2022-10-31T03:36:48;16.92;;;7.32;;
17927;SDS011;9089;58.396;15.544;2022-10-31T03:39:15;12.23;;;7.75;;
17927;SDS011;9089;58.396;15.544;2022-10-31T03:41:44;18.63;;;7.30;;
17927;SDS011;9089;58.396;15.544;2022-10-31T03:44:13;15.32;;;8.10;;
17927;SDS011;9089;58.396;15.544;2022-10-31T03:46:41;14.48;;;7.55;;
17927;SDS011;9089;58.396;15.544;2022-10-31T03:49:07;16.60;;;7.18;;
17927;SDS011;9089;58.396;15.544;2022-10-31T03:51:35;17.40;;;6.75;;
17927;SDS011;9089;58.396;15.544;2022-10-31T03:54:05;11.40;;;6.72;;
17927;SDS011;9089;58.396;15.544;2022-10-31T03:56:35;16.88;;;7.50;;
17927;SDS011;9089;58.396;15.544;2022-10-31T03:59:04;22.48;;;7.70;;
17927;SDS011;9089;58.396;15.544;2022-10-31T04:01:31;18.23;;;8.02;;
17927;SDS011;9089;58.396;15.544;2022-10-31T04:03:58;15.10;;;7.03;;
17927;SDS011;9089;58.396;15.544;2022-10-31T04:06:23;16.88;;;7.38;;
17927;SDS011;9089;58.396;15.544;2022-10-31T04:08:51;16.23;;;7.15;;
17927;SDS011;9089;58.396;15.544;2022-10-31T04:11:18;13.43;;;7.40;;
17927;SDS011;9089;58.396;15.544;2022-10-31T04:14:01;16.80;;;6.97;;
17927;SDS011;9089;58.396;15.544;2022-10-31T04:16:28;19.05;;;7.72;;
17927;SDS011;9089;58.396;15.544;2022-10-31T04:18:54;16.95;;;6.85;;
17927;SDS011;9089;58.396;15.544;2022-10-31T04:21:19;10.95;;;6.63;;
17927;SDS011;9089;58.396;15.544;2022-10-31T04:23:51;16.25;;;7.45;;
17927;SDS011;9089;58.396;15.544;2022-10-31T04:26:23;20.30;;;7.10;;
17927;SDS011;9089;58.396;15.544;2022-10-31T04:28:50;13.40;;;6.90;;
17927;SDS011;9089;58.396;15.544;2022-10-31T04:31:16;14.57;;;6.93;;
17927;SDS011;9089;58.396;15.544;2022-10-31T04:33:45;15.18;;;7.32;;
17927;SDS011;9089;58.396;15.544;2022-10-31T04:36:11;15.52;;;6.78;;
17927;SDS011;9089;58.396;15.544;2022-10-31T04:38:36;19.85;;;7.70;;
17927;SDS011;9089;58.396;15.544;2022-10-31T04:41:08;12.80;;;6.97;;
17927;SDS011;9089;58.396;15.544;2022-10-31T04:44:06;18.10;;;7.47;;
17927;SDS011;9089;58.396;15.544;2022-10-31T04:46:31;20.02;;;6.97;;
17927;SDS011;9089;58.396;15.544;2022-10-31T04:49:00;19.67;;;7.47;;
17927;SDS011;9089;58.396;15.544;2022-10-31T04:51:25;17.60;;;7.28;;
17927;SDS011;9089;58.396;15.544;2022-10-31T04:53:52;19.83;;;7.40;;
17927;SDS011;9089;58.396;15.544;2022-10-31T04:56:37;12.35;;;6.47;;
17927;SDS011;9089;58.396;15.544;2022-10-31T04:59:09;18.15;;;7.75;;
17927;SDS011;9089;58.396;15.544;2022-10-31T05:01:46;19.70;;;7.68;;
17927;SDS011;9089;58.396;15.544;2022-10-31T05:04:13;20.05;;;8.25;;
17927;SDS011;9089;58.396;15.544;2022-10-31T05:06:38;19.38;;;7.85;;
17927;SDS011;9089;58.396;15.544;2022-10-31T05:09:04;15.55;;;7.55;;
17927;SDS011;9089;58.396;15.544;2022-10-31T05:11:29;13.98;;;7.35;;
17927;SDS011;9089;58.396;15.544;2022-10-31T05:14:02;14.30;;;7.45;;
17927;SDS011;9089;58.396;15.544;2022-10-31T05:16:56;12.65;;;6.93;;
17927;SDS011;9089;58.396;15.544;2022-10-31T05:19:43;12.73;;;7.07;;
17927;SDS011;9089;58.396;15.544;2022-10-31T05:22:31;15.30;;;8.05;;
17927;SDS011;9089;58.396;15.544;2022-10-31T05:24:57;11.85;;;6.85;;
17927;SDS011;9089;58.396;15.544;2022-10-31T05:27:22;13.52;;;7.20;;
17927;SDS011;9089;58.396;15.544;2022-10-31T05:29:48;13.20;;;6.85;;
17927;SDS011;9089;58.396;15.544;2022-10-31T05:32:13;13.50;;;6.60;;
17927;SDS011;9089;58.396;15.544;2022-10-31T05:35:06;15.40;;;8.00;;
17927;SDS011;9089;58.396;15.544;2022-10-31T05:38:05;12.35;;;6.97;;
17927;SDS011;9089;58.396;15.544;2022-10-31T05:40:30;18.10;;;6.90;;
17927;SDS011;9089;58.396;15.544;2022-10-31T05:42:56;10.68;;;6.70;;
17927;SDS011;9089;58.396;15.544;2022-10-31T05:45:23;15.95;;;7.10;;
17927;SDS011;9089;58.396;15.544;2022-10-31T05:47:57;9.35;;;6.63;;
17927;SDS011;9089;58.396;15.544;2022-10-31T05:50:56;12.52;;;7.30;;
17927;SDS011;9089;58.396;15.544;2022-10-31T05:53:24;14.63;;;7.35;;
17927;SDS011;9089;58.396;15.544;2022-10-31T05:55:49;15.60;;;7.70;;
17927;SDS011;9089;58.396;15.544;2022-10-31T05:58:20;11.55;;;7.15;;
17927;SDS011;9089;58.396;15.544;2022-10-31T06:00:56;13.23;;;6.65;;
17927;SDS011;9089;58.396;15.544;2022-10-31T06:03:22;12.85;;;7.13;;
17927;SDS011;9089;58.396;15.544;2022-10-31T06:05:56;15.82;;;7.45;;
17927;SDS011;9089;58.396;15.544;2022-10-31T06:08:26;12.95;;;6.53;;
17927;SDS011;9089;58.396;15.544;2022-10-31T06:10:54;7.82;;;5.78;;
17927;SDS011;9089;58.396;15.544;2022-10-31T06:13:30;10.70;;;6.75;;
17927;SDS011;9089;58.396;15.544;2022-10-31T06:16:07;11.82;;;6.30;;
17927;SDS011;9089;58.396;15.544;2022-10-31T06:18:36;11.07;;;6.18;;
17927;SDS011;9089;58.396;15.544;2022-10-31T06:21:02;14.18;;;6.50;;
17927;SDS011;9089;58.396;15.544;2022-10-31T06:23:28;8.60;;;5.88;;
17927;SDS011;9089;58.396;15.544;2022-10-31T06:26:13;9.75;;;5.65;;
17927;SDS011;9089;58.396;15.544;2022-10-31T06:28:39;12.93;;;6.20;;
17927;SDS011;9089;58.396;15.544;2022-10-31T06:31:36;8.40;;;5.45;;
17927;SDS011;9089;58.396;15.544;2022-10-31T06:34:02;10.43;;;6.00;;
17927;SDS011;9089;58.396;15.544;2022-10-31T06:36:29;11.07;;;5.80;;
17927;SDS011;9089;58.396;15.544;2022-10-31T06:38:54;10.93;;;5.75;;
17927;SDS011;9089;58.396;15.544;2022-10-31T06:41:22;10.70;;;5.22;;
17927;SDS011;9089;58.396;15.544;2022-10-31T06:43:48;8.27;;;5.32;;
17927;SDS011;9089;58.396;15.544;2022-10-31T06:46:37;11.75;;;6.00;;
17927;SDS011;9089;58.396;15.544;2022-10-31T06:49:28;8.60;;;5.30;;
17927;SDS011;9089;58.396;15.544;2022-10-31T06:52:00;11.13;;;6.38;;
17927;SDS011;9089;58.396;15.544;2022-10-31T06:54:25;9.07;;;5.43;;
17927;SDS011;9089;58.396;15.544;2022-10-31T06:56:51;11.55;;;6.18;;
17927;SDS011;9089;58.396;15.544;2022-10-31T06:59:16;10.40;;;6.05;;
17927;SDS011;9089;58.396;15.544;2022-10-31T07:02:03;10.27;;;5.70;;
17927;SDS011;9089;58.396;15.544;2022-10-31T07:04:28;13.30;;;6.30;;
17927;SDS011;9089;58.396;15.544;2022-10-31T07:06:54;9.05;;;6.32;;
17927;SDS011;9089;58.396;15.544;2022-10-31T07:09:21;9.88;;;5.80;;
17927;SDS011;9089;58.396;15.544;2022-10-31T07:11:47;13.50;;;6.10;;
17927;SDS011;9089;58.396;15.544;2022-10-31T07:14:13;9.85;;;5.65;;
17927;SDS011;9089;58.396;15.544;2022-10-31T07:16:39;9.07;;;5.45;;
17927;SDS011;9089;58.396;15.544;2022-10-31T07:19:05;10.98;;;6.18;;
17927;SDS011;9089;58.396;15.544;2022-10-31T07:21:31;8.32;;;6.03;;
17927;SDS011;9089;58.396;15.544;2022-10-31T07:23:56;12.10;;;6.30;;
17927;SDS011;9089;58.396;15.544;2022-10-31T07:26:58;10.73;;;7.05;;
17927;SDS011;9089;58.396;15.544;2022-10-31T07:29:24;10.13;;;5.90;;
17927;SDS011;9089;58.396;15.544;2022-10-31T07:31:49;12.18;;;6.28;;
17927;SDS011;9089;58.396;15.544;2022-10-31T07:34:21;10.05;;;6.60;;
17927;SDS011;9089;58.396;15.544;2022-10-31T07:37:11;10.48;;;6.40;;
17927;SDS011;9089;58.396;15.544;2022-10-31T07:39:36;10.98;;;6.45;;
17927;SDS011;9089;58.396;15.544;2022-10-31T07:42:04;14.80;;;6.20;;
17927;SDS011;9089;58.396;15.544;2022-10-31T07:44:31;13.80;;;6.40;;
17927;SDS011;9089;58.396;15.544;2022-10-31T07:47:15;13.55;;;6.18;;
17927;SDS011;9089;58.396;15.544;2022-10-31T07:49:59;9.38;;;6.25;;
17927;SDS011;9089;58.396;15.544;2022-10-31T07:52:43;10.27;;;6.28;;
17927;SDS011;9089;58.396;15.544;2022-10-31T07:55:42;8.23;;;5.80;;
17927;SDS011;9089;58.396;15.544;2022-10-31T07:58:10;8.65;;;5.50;;
17927;SDS011;9089;58.396;15.544;2022-10-31T08:00:38;8.65;;;5.15;;
17927;SDS011;9089;58.396;15.544;2022-10-31T08:03:05;8.70;;;5.63;;
17927;SDS011;9089;58.396;15.544;2022-10-31T08:06:09;10.80;;;5.78;;
17927;SDS011;9089;58.396;15.544;2022-10-31T08:08:46;7.60;;;6.28;;
17927;SDS011;9089;58.396;15.544;2022-10-31T08:11:12;7.82;;;5.97;;
17927;SDS011;9089;58.396;15.544;2022-10-31T08:13:39;10.52;;;6.20;;
17927;SDS011;9089;58.396;15.544;2022-10-31T08:16:06;7.07;;;5.07;;
17927;SDS011;9089;58.396;15.544;2022-10-31T08:18:36;6.72;;;5.40;;
17927;SDS011;9089;58.396;15.544;2022-10-31T08:21:04;7.72;;;5.22;;
17927;SDS011;9089;58.396;15.544;2022-10-31T08:23:29;6.70;;;5.25;;
17927;SDS011;9089;58.396;15.544;2022-10-31T08:25:55;6.38;;;5.32;;
17927;SDS011;9089;58.396;15.544;2022-10-31T08:28:22;8.48;;;5.20;;
17927;SDS011;9089;58.396;15.544;2022-10-31T08:30:51;8.27;;;6.07;;
17927;SDS011;9089;58.396;15.544;2022-10-31T08:33:35;8.27;;;5.63;;
17927;SDS011;9089;58.396;15.544;2022-10-31T08:36:19;6.35;;;4.70;;
17927;SDS011;9089;58.396;15.544;2022-10-31T08:39:01;7.10;;;4.65;;
17927;SDS011;9089;58.396;15.544;2022-10-31T08:41:27;5.63;;;4.45;;
17927;SDS011;9089;58.396;15.544;2022-10-31T08:43:53;8.50;;;4.60;;
17927;SDS011;9089;58.396;15.544;2022-10-31T08:46:21;6.55;;;5.00;;
17927;SDS011;9089;58.396;15.544;2022-10-31T08:48:47;6.50;;;4.47;;
17927;SDS011;9089;58.396;15.544;2022-10-31T08:51:13;6.70;;;4.97;;
17927;SDS011;9089;58.396;15.544;2022-10-31T08:53:38;9.82;;;5.28;;
17927;SDS011;9089;58.396;15.544;2022-10-31T08:56:22;7.57;;;4.68;;
17927;SDS011;9089;58.396;15.544;2022-10-31T08:58:48;5.45;;;4.18;;
17927;SDS011;9089;58.396;15.544;2022-10-31T09:01:14;6.63;;;4.63;;
17927;SDS011;9089;58.396;15.544;2022-10-31T09:03:43;7.20;;;4.35;;
17927;SDS011;9089;58.396;15.544;2022-10-31T09:06:09;8.52;;;4.38;;
17927;SDS011;9089;58.396;15.544;2022-10-31T09:08:36;5.70;;;4.40;;
17927;SDS011;9089;58.396;15.544;2022-10-31T09:11:02;6.97;;;4.28;;
17927;SDS011;9089;58.396;15.544;2022-10-31T09:13:46;7.78;;;4.75;;
17927;SDS011;9089;58.396;15.544;2022-10-31T09:16:30;10.07;;;5.05;;
17927;SDS011;9089;58.396;15.544;2022-10-31T09:18:57;7.32;;;4.80;;
17927;SDS011;9089;58.396;15.544;2022-10-31T09:21:22;5.80;;;4.68;;
17927;SDS011;9089;58.396;15.544;2022-10-31T09:23:48;8.55;;;4.95;;
17927;SDS011;9089;58.396;15.544;2022-10-31T09:26:14;7.45;;;4.30;;
17927;SDS011;9089;58.396;15.544;2022-10-31T09:28:42;8.38;;;4.85;;
17927;SDS011;9089;58.396;15.544;2022-10-31T09:31:16;6.13;;;4.18;;
17927;SDS011;9089;58.396;15.544;2022-10-31T09:34:03;5.20;;;4.53;;
17927;SDS011;9089;58.396;15.544;2022-10-31T09:36:34;7.82;;;5.03;;
17927;SDS011;9089;58.396;15.544;2022-10-31T09:39:02;9.45;;;5.57;;
17927;SDS011;9089;58.396;15.544;2022-10-31T09:41:29;7.95;;;5.82;;
17927;SDS011;9089;58.396;15.544;2022-10-31T09:43:58;10.38;;;5.45;;
17927;SDS011;9089;58.396;15.544;2022-10-31T09:46:30;10.75;;;5.75;;
17927;SDS011;9089;58.396;15.544;2022-10-31T09:51:50;9.27;;;4.78;;
17927;SDS011;9089;58.396;15.544;2022-10-31T09:54:25;7.07;;;4.57;;
17927;SDS011;9089;58.396;15.544;2022-10-31T09:56:52;11.90;;;5.07;;
17927;SDS011;9089;58.396;15.544;2022-10-31T09:59:19;9.15;;;4.22;;
17927;SDS011;9089;58.396;15.544;2022-10-31T10:01:47;8.57;;;4.22;;
17927;SDS011;9089;58.396;15.544;2022-10-31T10:04:20;9.73;;;4.55;;
17927;SDS011;9089;58.396;15.544;2022-10-31T10:06:59;9.57;;;4.43;;
17927;SDS011;9089;58.396;15.544;2022-10-31T10:09:50;8.10;;;4.15;;
17927;SDS011;9089;58.396;15.544;2022-10-31T10:12:38;7.88;;;4.50;;
17927;SDS011;9089;58.396;15.544;2022-10-31T10:15:20;7.20;;;4.78;;
17927;SDS011;9089;58.396;15.544;2022-10-31T10:17:51;5.78;;;4.20;;
17927;SDS011;9089;58.396;15.544;2022-10-31T10:20:25;8.00;;;4.97;;
17927;SDS011;9089;58.396;15.544;2022-10-31T10:22:57;9.93;;;5.00;;
17927;SDS011;9089;58.396;15.544;2022-10-31T10:25:26;10.27;;;5.93;;
17927;SDS011;9089;58.396;15.544;2022-10-31T10:27:57;9.27;;;5.78;;
17927;SDS011;9089;58.396;15.544;2022-10-31T10:30:26;8.73;;;5.15;;
17927;SDS011;9089;58.396;15.544;2022-10-31T10:32:55;8.25;;;4.78;;
17927;SDS011;9089;58.396;15.544;2022-10-31T10:35:23;10.98;;;5.30;;
17927;SDS011;9089;58.396;15.544;2022-10-31T10:37:50;8.13;;;3.58;;
17927;SDS011;9089;58.396;15.544;2022-10-31T10:40:19;10.80;;;3.83;;
17927;SDS011;9089;58.396;15.544;2022-10-31T10:42:45;7.50;;;3.80;;
17927;SDS011;9089;58.396;15.544;2022-10-31T10:45:34;6.85;;;3.50;;
17927;SDS011;9089;58.396;15.544;2022-10-31T10:48:21;8.27;;;3.22;;
17927;SDS011;9089;58.396;15.544;2022-10-31T10:50:50;5.78;;;3.28;;
17927;SDS011;9089;58.396;15.544;2022-10-31T10:53:30;6.78;;;3.20;;
17927;SDS011;9089;58.396;15.544;2022-10-31T10:56:04;6.05;;;3.00;;
17927;SDS011;9089;58.396;15.544;2022-10-31T10:58:34;6.28;;;3.45;;
17927;SDS011;9089;58.396;15.544;2022-10-31T11:01:08;8.63;;;3.35;;
17927;SDS011;9089;58.396;15.544;2022-10-31T11:03:34;5.85;;;3.30;;
17927;SDS011;9089;58.396;15.544;2022-10-31T11:06:00;9.50;;;3.75;;
17927;SDS011;9089;58.396;15.544;2022-10-31T11:08:27;9.52;;;3.85;;
17927;SDS011;9089;58.396;15.544;2022-10-31T11:10:58;7.78;;;3.40;;
17927;SDS011;9089;58.396;15.544;2022-10-31T11:13:25;8.65;;;3.20;;
17927;SDS011;9089;58.396;15.544;2022-10-31T11:15:53;6.68;;;3.17;;
17927;SDS011;9089;58.396;15.544;2022-10-31T11:18:21;6.75;;;2.90;;
17927;SDS011;9089;58.396;15.544;2022-10-31T11:20:50;4.10;;;2.60;;
17927;SDS011;9089;58.396;15.544;2022-10-31T11:23:16;8.18;;;3.42;;
17927;SDS011;9089;58.396;15.544;2022-10-31T11:25:47;7.85;;;3.50;;
17927;SDS011;9089;58.396;15.544;2022-10-31T11:28:13;6.18;;;2.72;;
17927;SDS011;9089;58.396;15.544;2022-10-31T11:30:43;9.20;;;3.40;;
17927;SDS011;9089;58.396;15.544;2022-10-31T11:33:11;5.18;;;2.70;;
17927;SDS011;9089;58.396;15.544;2022-10-31T11:35:40;5.45;;;3.03;;
17927;SDS011;9089;58.396;15.544;2022-10-31T11:38:05;8.70;;;3.03;;
17927;SDS011;9089;58.396;15.544;2022-10-31T11:40:30;5.70;;;2.80;;
17927;SDS011;9089;58.396;15.544;2022-10-31T11:42:56;6.78;;;2.97;;
17927;SDS011;9089;58.396;15.544;2022-10-31T11:45:28;4.03;;;2.35;;
17927;SDS011;9089;58.396;15.544;2022-10-31T11:47:56;7.15;;;2.63;;
17927;SDS011;9089;58.396;15.544;2022-10-31T11:50:22;5.72;;;2.58;;
17927;SDS011;9089;58.396;15.544;2022-10-31T11:52:48;6.63;;;2.47;;
17927;SDS011;9089;58.396;15.544;2022-10-31T11:55:15;7.07;;;2.20;;
17927;SDS011;9089;58.396;15.544;2022-10-31T11:57:42;4.45;;;2.22;;
17927;SDS011;9089;58.396;15.544;2022-10-31T12:00:20;3.10;;;2.05;;
17927;SDS011;9089;58.396;15.544;2022-10-31T12:02:46;5.47;;;2.65;;
17927;SDS011;9089;58.396;15.544;2022-10-31T12:05:17;4.97;;;2.20;;
17927;SDS011;9089;58.396;15.544;2022-10-31T12:07:43;6.07;;;2.67;;
17927;SDS011;9089;58.396;15.544;2022-10-31T12:10:09;4.32;;;2.20;;
17927;SDS011;9089;58.396;15.544;2022-10-31T12:12:39;4.45;;;2.30;;
17927;SDS011;9089;58.396;15.544;2022-10-31T12:15:13;3.35;;;2.42;;
17927;SDS011;9089;58.396;15.544;2022-10-31T12:17:42;5.82;;;2.38;;
17927;SDS011;9089;58.396;15.544;2022-10-31T12:20:12;5.07;;;2.72;;
17927;SDS011;9089;58.396;15.544;2022-10-31T12:22:45;3.90;;;2.85;;
17927;SDS011;9089;58.396;15.544;2022-10-31T12:25:17;6.43;;;2.80;;
17927;SDS011;9089;58.396;15.544;2022-10-31T12:28:03;4.72;;;2.45;;
17927;SDS011;9089;58.396;15.544;2022-10-31T12:30:32;7.13;;;3.03;;
17927;SDS011;9089;58.396;15.544;2022-10-31T12:33:10;4.78;;;2.60;;
17927;SDS011;9089;58.396;15.544;2022-10-31T12:35:45;6.28;;;2.83;;
17927;SDS011;9089;58.396;15.544;2022-10-31T12:38:18;7.05;;;2.80;;
17927;SDS011;9089;58.396;15.544;2022-10-31T12:40:51;5.55;;;2.85;;
17927;SDS011;9089;58.396;15.544;2022-10-31T12:43:22;6.72;;;2.85;;
17927;SDS011;9089;58.396;15.544;2022-10-31T12:45:52;7.05;;;2.60;;
17927;SDS011;9089;58.396;15.544;2022-10-31T12:48:24;4.40;;;2.20;;
17927;SDS011;9089;58.396;15.544;2022-10-31T12:50:56;6.45;;;3.08;;
17927;SDS011;9089;58.396;15.544;2022-10-31T12:53:30;4.32;;;2.13;;
17927;SDS011;9089;58.396;15.544;2022-10-31T12:56:02;5.15;;;2.40;;
17927;SDS011;9089;58.396;15.544;2022-10-31T12:58:31;3.03;;;2.03;;
17927;SDS011;9089;58.396;15.544;2022-10-31T13:01:02;6.57;;;2.08;;
17927;SDS011;9089;58.396;15.544;2022-10-31T13:03:32;6.70;;;2.20;;
17927;SDS011;9089;58.396;15.544;2022-10-31T13:06:02;5.90;;;2.33;;
17927;SDS011;9089;58.396;15.544;2022-10-31T13:08:30;7.20;;;2.67;;
17927;SDS011;9089;58.396;15.544;2022-10-31T13:11:02;4.60;;;2.25;;
17927;SDS011;9089;58.396;15.544;2022-10-31T13:13:31;5.50;;;2.60;;
17927;SDS011;9089;58.396;15.544;2022-10-31T13:15:58;6.60;;;2.80;;
17927;SDS011;9089;58.396;15.544;2022-10-31T13:18:26;7.00;;;2.35;;
17927;SDS011;9089;58.396;15.544;2022-10-31T13:20:52;4.85;;;2.45;;
17927;SDS011;9089;58.396;15.544;2022-10-31T13:23:21;3.78;;;2.40;;
17927;SDS011;9089;58.396;15.544;2022-10-31T13:25:51;4.75;;;2.53;;
17927;SDS011;9089;58.396;15.544;2022-10-31T13:28:22;3.30;;;2.20;;
17927;SDS011;9089;58.396;15.544;2022-10-31T13:30:49;9.98;;;2.65;;
17927;SDS011;9089;58.396;15.544;2022-10-31T13:33:16;4.82;;;2.38;;
17927;SDS011;9089;58.396;15.544;2022-10-31T13:35:43;5.00;;;2.47;;
17927;SDS011;9089;58.396;15.544;2022-10-31T13:38:12;6.03;;;2.78;;
17927;SDS011;9089;58.396;15.544;2022-10-31T13:40:42;4.75;;;2.22;;
17927;SDS011;9089;58.396;15.544;2022-10-31T13:43:18;5.70;;;2.65;;
17927;SDS011;9089;58.396;15.544;2022-10-31T13:45:49;3.47;;;2.50;;
17927;SDS011;9089;58.396;15.544;2022-10-31T13:48:19;4.00;;;2.30;;
17927;SDS011;9089;58.396;15.544;2022-10-31T13:50:54;4.75;;;2.40;;
17927;SDS011;9089;58.396;15.544;2022-10-31T13:53:20;4.75;;;2.13;;
17927;SDS011;9089;58.396;15.544;2022-10-31T13:55:47;3.25;;;1.98;;
17927;SDS011;9089;58.396;15.544;2022-10-31T13:58:21;5.25;;;2.45;;
17927;SDS011;9089;58.396;15.544;2022-10-31T14:00:57;4.45;;;2.17;;
17927;SDS011;9089;58.396;15.544;2022-10-31T14:03:23;4.68;;;1.95;;
17927;SDS011;9089;58.396;15.544;2022-10-31T14:05:51;4.65;;;2.17;;
17927;SDS011;9089;58.396;15.544;2022-10-31T14:08:18;5.40;;;1.90;;
17927;SDS011;9089;58.396;15.544;2022-10-31T14:10:46;4.75;;;2.80;;
17927;SDS011;9089;58.396;15.544;2022-10-31T14:13:13;5.45;;;2.30;;
17927;SDS011;9089;58.396;15.544;2022-10-31T14:15:42;5.18;;;2.20;;
17927;SDS011;9089;58.396;15.544;2022-10-31T14:18:17;5.28;;;2.30;;
17927;SDS011;9089;58.396;15.544;2022-10-31T14:20:45;5.22;;;2.38;;
17927;SDS011;9089;58.396;15.544;2022-10-31T14:25:51;4.20;;;2.50;;
17927;SDS011;9089;58.396;15.544;2022-10-31T14:28:20;4.25;;;1.92;;
17927;SDS011;9089;58.396;15.544;2022-10-31T14:30:54;3.42;;;2.30;;
17927;SDS011;9089;58.396;15.544;2022-10-31T14:33:20;5.55;;;2.00;;
17927;SDS011;9089;58.396;15.544;2022-10-31T14:35:50;4.85;;;2.17;;
17927;SDS011;9089;58.396;15.544;2022-10-31T14:38:22;6.75;;;2.17;;
17927;SDS011;9089;58.396;15.544;2022-10-31T14:40:52;6.25;;;2.38;;
17927;SDS011;9089;58.396;15.544;2022-10-31T14:46:09;3.67;;;2.17;;
17927;SDS011;9089;58.396;15.544;2022-10-31T14:48:43;6.32;;;2.28;;
17927;SDS011;9089;58.396;15.544;2022-10-31T14:51:13;3.58;;;2.15;;
17927;SDS011;9089;58.396;15.544;2022-10-31T14:53:41;3.67;;;2.40;;
17927;SDS011;9089;58.396;15.544;2022-10-31T14:56:09;3.45;;;2.28;;
17927;SDS011;9089;58.396;15.544;2022-10-31T14:58:37;3.83;;;2.60;;
17927;SDS011;9089;58.396;15.544;2022-10-31T15:01:03;3.50;;;2.10;;
17927;SDS011;9089;58.396;15.544;2022-10-31T15:03:31;4.07;;;2.65;;
17927;SDS011;9089;58.396;15.544;2022-10-31T15:05:59;6.65;;;2.72;;
17927;SDS011;9089;58.396;15.544;2022-10-31T15:08:35;5.03;;;2.95;;
17927;SDS011;9089;58.396;15.544;2022-10-31T15:11:03;5.93;;;2.70;;
17927;SDS011;9089;58.396;15.544;2022-10-31T15:13:34;5.93;;;2.60;;
17927;SDS011;9089;58.396;15.544;2022-10-31T15:15:59;4.78;;;2.67;;
17927;SDS011;9089;58.396;15.544;2022-10-31T15:18:25;6.93;;;2.50;;
17927;SDS011;9089;58.396;15.544;2022-10-31T15:20:53;3.65;;;2.50;;
17927;SDS011;9089;58.396;15.544;2022-10-31T15:23:21;5.57;;;2.72;;
17927;SDS011;9089;58.396;15.544;2022-10-31T15:25:47;5.20;;;2.75;;
17927;SDS011;9089;58.396;15.544;2022-10-31T15:28:13;5.95;;;3.17;;
17927;SDS011;9089;58.396;15.544;2022-10-31T15:30:38;5.25;;;2.90;;
17927;SDS011;9089;58.396;15.544;2022-10-31T15:33:15;7.78;;;3.33;;
17927;SDS011;9089;58.396;15.544;2022-10-31T15:35:40;4.88;;;3.45;;
17927;SDS011;9089;58.396;15.544;2022-10-31T15:38:07;7.70;;;3.40;;
17927;SDS011;9089;58.396;15.544;2022-10-31T15:40:34;6.78;;;3.45;;
17927;SDS011;9089;58.396;15.544;2022-10-31T15:43:00;5.95;;;3.28;;
17927;SDS011;9089;58.396;15.544;2022-10-31T15:45:27;5.80;;;3.28;;
17927;SDS011;9089;58.396;15.544;2022-10-31T15:47:53;6.68;;;3.33;;
17927;SDS011;9089;58.396;15.544;2022-10-31T15:50:20;4.90;;;2.35;;
17927;SDS011;9089;58.396;15.544;2022-10-31T15:52:47;5.97;;;3.08;;
17927;SDS011;9089;58.396;15.544;2022-10-31T15:55:18;4.10;;;2.95;;
17927;SDS011;9089;58.396;15.544;2022-10-31T15:57:44;5.95;;;2.78;;
17927;SDS011;9089;58.396;15.544;2022-10-31T16:00:20;4.13;;;2.63;;
17927;SDS011;9089;58.396;15.544;2022-10-31T16:02:46;6.68;;;2.72;;
17927;SDS011;9089;58.396;15.544;2022-10-31T16:05:15;4.63;;;2.63;;
17927;SDS011;9089;58.396;15.544;2022-10-31T16:07:47;4.10;;;2.90;;